Time;durP1;ratioP1;P1;durP2;ratioP2;P2;SDS_P1;SDS_P2;PMS_P1;PMS_P2;Temp;Humidity;BMP_temperature;BMP_pressure;BME280_temperature;BME280_humidity;BME280_pressure;Samples;Min_cycle;Max_cycle;Signal;HPM_P1;HPM_P2
2020/12/14 00:01:57;;;;;;;6.45;1.92;;;7.50;1.00;;;;;;5073284;28;20232;-67
2020/12/14 00:04:23;;;;;;;5.93;2.23;;;7.50;1.00;;;;;;5073408;28;20176;-67
2020/12/14 00:06:51;;;;;;;5.43;2.23;;;7.50;1.00;;;;;;5073285;28;20180;-67
2020/12/14 00:09:17;;;;;;;4.10;2.10;;;7.40;1.00;;;;;;5073582;28;20188;-65
2020/12/14 00:11:43;;;;;;;4.70;2.30;;;7.40;1.00;;;;;;5073301;28;20256;-65
2020/12/14 00:14:08;;;;;;;5.00;1.97;;;7.50;1.00;;;;;;5073096;28;20489;-65
2020/12/14 00:16:34;;;;;;;5.70;2.37;;;7.40;1.00;;;;;;5073259;28;20168;-68
2020/12/14 00:19:00;;;;;;;5.83;2.43;;;7.50;1.00;;;;;;5073011;28;20182;-65
2020/12/14 00:21:25;;;;;;;10.93;2.40;;;7.50;1.00;;;;;;5073633;28;20593;-65
2020/12/14 00:23:51;;;;;;;4.43;2.30;;;7.60;1.00;;;;;;5073150;28;20168;-65
2020/12/14 00:26:18;;;;;;;3.33;2.03;;;7.50;1.00;;;;;;5073431;28;20192;-65
2020/12/14 00:28:48;;;;;;;7.38;3.25;;;7.60;1.00;;;;;;5073002;28;20176;-65
2020/12/14 00:31:17;;;;;;;6.85;2.00;;;7.50;1.00;;;;;;5073234;28;20196;-65
2020/12/14 00:33:45;;;;;;;4.50;2.10;;;7.50;1.00;;;;;;5073242;28;20171;-65
2020/12/14 00:36:11;;;;;;;10.93;2.67;;;7.50;1.00;;;;;;5072931;28;20179;-65
2020/12/14 00:38:37;;;;;;;4.87;1.80;;;7.50;1.00;;;;;;5073018;28;20176;-65
2020/12/14 00:41:03;;;;;;;4.43;1.70;;;7.50;1.00;;;;;;5072796;28;20743;-65
2020/12/14 00:43:29;;;;;;;4.68;2.25;;;7.50;1.00;;;;;;5072865;28;20402;-68
2020/12/14 00:45:54;;;;;;;2.33;1.50;;;7.60;1.00;;;;;;5073160;28;20169;-65
2020/12/14 00:48:20;;;;;;;3.73;2.00;;;7.50;1.00;;;;;;5074494;28;20172;-65
2020/12/14 00:50:46;;;;;;;6.23;2.10;;;7.60;1.00;;;;;;5076560;28;20191;-65
2020/12/14 00:53:11;;;;;;;9.67;2.17;;;7.50;1.00;;;;;;5073938;28;20222;-65
2020/12/14 00:55:37;;;;;;;5.63;1.87;;;7.60;1.00;;;;;;5072844;28;20417;-64
2020/12/14 00:58:02;;;;;;;3.70;1.97;;;7.60;1.00;;;;;;5073292;28;20246;-65
2020/12/14 01:00:28;;;;;;;4.53;1.77;;;7.50;1.00;;;;;;5076838;28;20210;-65
2020/12/14 01:02:54;;;;;;;7.63;2.37;;;7.50;1.00;;;;;;5077077;28;20188;-66
2020/12/14 01:05:19;;;;;;;4.27;2.00;;;7.50;1.00;;;;;;5077053;28;20402;-65
2020/12/14 01:07:45;;;;;;;5.50;2.20;;;7.40;1.00;;;;;;5076722;28;20167;-67
2020/12/14 01:10:10;;;;;;;6.77;1.83;;;7.40;1.00;;;;;;5077122;28;20188;-66
2020/12/14 01:12:36;;;;;;;7.40;2.37;;;7.40;1.00;;;;;;5076566;28;20168;-66
2020/12/14 01:15:02;;;;;;;11.20;2.43;;;7.40;1.00;;;;;;5076480;28;20175;-65
2020/12/14 01:17:28;;;;;;;2.80;1.75;;;7.50;1.00;;;;;;5076809;28;20176;-65
2020/12/14 01:19:53;;;;;;;5.83;1.83;;;7.60;1.00;;;;;;5076230;28;20210;-66
2020/12/14 01:22:19;;;;;;;5.10;1.90;;;7.50;1.00;;;;;;5076940;28;20195;-64
2020/12/14 01:24:44;;;;;;;5.87;2.03;;;7.50;1.00;;;;;;5076526;28;20165;-66
2020/12/14 01:27:10;;;;;;;6.23;1.80;;;7.60;1.00;;;;;;5076251;28;20653;-66
2020/12/14 01:29:35;;;;;;;8.50;2.20;;;7.60;1.00;;;;;;5076295;28;20192;-66
2020/12/14 01:32:01;;;;;;;5.97;1.90;;;7.60;1.00;;;;;;5076799;28;20170;-66
2020/12/14 01:34:26;;;;;;;3.63;2.13;;;7.60;1.00;;;;;;5076147;28;20165;-66
2020/12/14 01:36:52;;;;;;;2.40;1.53;;;7.60;1.00;;;;;;5076401;28;20175;-66
2020/12/14 01:39:18;;;;;;;3.00;1.50;;;7.70;1.00;;;;;;5074776;28;20199;-66
2020/12/14 01:41:43;;;;;;;4.60;1.63;;;7.60;1.00;;;;;;5075947;28;20192;-66
2020/12/14 01:44:09;;;;;;;3.60;1.90;;;7.70;1.00;;;;;;5075945;28;20179;-64
2020/12/14 01:46:38;;;;;;;4.77;1.93;;;7.60;1.00;;;;;;5074608;28;20222;-66
2020/12/14 01:49:03;;;;;;;4.13;1.90;;;7.60;1.00;;;;;;5075749;28;20192;-66
2020/12/14 01:51:30;;;;;;;6.70;2.20;;;7.60;1.00;;;;;;5076064;28;20273;-66
2020/12/14 01:54:05;;;;;;;10.32;1.90;;;7.60;1.00;;;;;;5075802;28;20464;-66
2020/12/14 01:56:31;;;;;;;5.13;1.40;;;7.60;1.00;;;;;;5076047;28;20167;-65
2020/12/14 01:58:56;;;;;;;3.33;1.40;;;7.60;1.00;;;;;;5075661;28;20164;-66
2020/12/14 02:01:22;;;;;;;5.37;2.33;;;7.60;1.00;;;;;;5075597;28;20195;-66
2020/12/14 02:03:47;;;;;;;4.80;1.83;;;7.60;1.00;;;;;;5075824;28;20168;-66
2020/12/14 02:06:13;;;;;;;6.27;1.60;;;7.60;1.00;;;;;;5075853;28;20648;-66
2020/12/14 02:08:38;;;;;;;7.33;2.50;;;7.50;1.00;;;;;;5075721;28;20263;-66
2020/12/14 02:11:04;;;;;;;4.30;2.10;;;7.50;1.00;;;;;;5074159;28;20593;-66
2020/12/14 02:13:30;;;;;;;14.13;2.10;;;7.60;1.00;;;;;;5075640;28;20172;-65
2020/12/14 02:15:56;;;;;;;4.22;1.25;;;7.60;1.00;;;;;;5075445;28;20663;-66
2020/12/14 02:18:22;;;;;;;6.10;1.93;;;7.60;1.00;;;;;;5075433;28;20246;-66
2020/12/14 02:20:49;;;;;;;5.20;2.10;;;7.60;1.00;;;;;;5075124;28;20212;-66
2020/12/14 02:23:15;;;;;;;6.10;2.13;;;7.60;1.00;;;;;;5075145;28;20211;-66
2020/12/14 02:25:40;;;;;;;4.97;1.70;;;7.70;1.00;;;;;;5075214;28;20164;-66
2020/12/14 02:28:06;;;;;;;3.33;1.60;;;7.70;1.00;;;;;;5075131;28;20641;-66
2020/12/14 02:30:31;;;;;;;6.07;1.83;;;7.60;1.00;;;;;;5075130;28;20661;-66
2020/12/14 02:32:57;;;;;;;3.90;1.70;;;7.50;1.00;;;;;;5075098;28;20710;-67
2020/12/14 02:35:22;;;;;;;3.03;1.40;;;7.60;1.00;;;;;;5075077;28;20170;-66
2020/12/14 02:37:48;;;;;;;1.97;1.30;;;7.60;1.00;;;;;;5075003;28;20180;-66
2020/12/14 02:40:13;;;;;;;4.90;2.17;;;7.70;1.00;;;;;;5075303;28;20192;-66
2020/12/14 02:42:39;;;;;;;8.10;1.73;;;7.60;1.00;;;;;;5074942;28;20279;-66
2020/12/14 02:45:04;;;;;;;4.90;1.87;;;7.60;1.00;;;;;;5075393;28;20269;-66
2020/12/14 02:47:30;;;;;;;5.13;1.50;;;7.70;1.00;;;;;;5075131;28;20187;-66
2020/12/14 02:49:56;;;;;;;4.47;1.60;;;7.70;1.00;;;;;;5074927;28;20176;-66
2020/12/14 02:52:21;;;;;;;3.87;1.73;;;7.60;1.00;;;;;;5074963;28;20173;-66
2020/12/14 02:54:47;;;;;;;4.57;2.13;;;7.60;1.00;;;;;;5074624;28;20199;-66
2020/12/14 02:57:13;;;;;;;5.40;2.03;;;7.50;1.00;;;;;;5074635;28;20206;-66
2020/12/14 02:59:39;;;;;;;2.45;1.55;;;7.50;1.00;;;;;;5074475;28;20245;-66
2020/12/14 03:02:05;;;;;;;4.22;2.20;;;7.60;1.00;;;;;;5074461;28;20196;-65
2020/12/14 03:04:31;;;;;;;2.90;1.67;;;7.60;1.00;;;;;;5074706;28;20270;-66
2020/12/14 03:06:57;;;;;;;6.10;2.63;;;7.60;1.00;;;;;;5074623;28;20374;-65
2020/12/14 03:09:22;;;;;;;2.25;1.50;;;7.60;1.00;;;;;;5074464;28;20207;-65
2020/12/14 03:11:49;;;;;;;3.43;1.40;;;7.50;1.00;;;;;;5074291;28;20173;-66
2020/12/14 03:14:16;;;;;;;6.97;1.35;;;7.50;1.00;;;;;;5074512;28;20164;-66
2020/12/14 03:16:46;;;;;;;5.15;1.60;;;7.60;1.00;;;;;;5074240;28;20172;-65
2020/12/14 03:19:12;;;;;;;4.10;2.00;;;7.60;1.00;;;;;;5073933;28;20205;-65
2020/12/14 03:21:38;;;;;;;2.23;1.30;;;7.60;1.00;;;;;;5073657;28;20275;-65
2020/12/14 03:24:04;;;;;;;5.03;1.30;;;7.70;1.00;;;;;;5073990;28;20437;-66
2020/12/14 03:26:30;;;;;;;2.93;1.60;;;7.70;1.00;;;;;;5074194;28;20407;-66
2020/12/14 03:28:55;;;;;;;6.43;1.60;;;7.70;1.00;;;;;;5074457;28;20237;-66
2020/12/14 03:31:22;;;;;;;3.77;1.50;;;7.80;1.00;;;;;;5073926;28;20235;-66
2020/12/14 03:33:49;;;;;;;2.72;1.75;;;7.70;1.00;;;;;;5073905;28;20230;-66
2020/12/14 03:36:15;;;;;;;3.28;1.65;;;7.80;1.00;;;;;;5073996;28;20660;-66
2020/12/14 03:38:40;;;;;;;3.53;1.67;;;7.80;1.00;;;;;;5074014;28;20176;-66
2020/12/14 03:41:06;;;;;;;8.00;3.23;;;7.80;1.00;;;;;;5073598;28;20196;-66
2020/12/14 03:43:32;;;;;;;1.67;1.23;;;7.80;1.00;;;;;;5073654;28;20179;-66
2020/12/14 03:45:58;;;;;;;5.32;1.73;;;7.70;1.00;;;;;;5073752;28;20172;-66
2020/12/14 03:48:24;;;;;;;1.83;1.10;;;7.80;1.00;;;;;;5073912;28;20171;-65
2020/12/14 03:50:50;;;;;;;4.20;1.88;;;7.80;1.00;;;;;;5073518;28;20187;-66
2020/12/14 03:53:16;;;;;;;5.97;1.83;;;7.90;1.00;;;;;;5073591;28;20172;-66
2020/12/14 03:55:42;;;;;;;7.17;1.87;;;7.90;1.00;;;;;;5073674;28;20472;-66
2020/12/14 03:58:08;;;;;;;4.40;1.63;;;7.90;1.00;;;;;;5073463;28;20412;-66
2020/12/14 04:00:34;;;;;;;7.60;2.23;;;7.90;1.00;;;;;;5073282;28;20683;-66
2020/12/14 04:03:04;;;;;;;4.03;1.98;;;7.90;1.00;;;;;;5073614;28;20533;-66
2020/12/14 04:05:30;;;;;;;4.97;1.95;;;7.90;1.00;;;;;;5073636;28;20172;-66
2020/12/14 04:07:55;;;;;;;2.47;1.67;;;7.90;1.00;;;;;;5073659;28;20171;-66
2020/12/14 04:10:21;;;;;;;2.90;1.33;;;7.90;1.00;;;;;;5073262;28;20192;-66
2020/12/14 04:12:46;;;;;;;3.50;1.70;;;8.00;1.00;;;;;;5073782;28;20172;-66
2020/12/14 04:15:12;;;;;;;5.43;1.43;;;7.90;1.00;;;;;;5073742;28;20254;-66
2020/12/14 04:17:37;;;;;;;5.80;1.60;;;7.90;1.00;;;;;;5073494;28;20259;-66
2020/12/14 04:20:03;;;;;;;8.17;1.63;;;8.00;1.00;;;;;;5073134;28;20621;-66
2020/12/14 04:22:29;;;;;;;4.33;1.60;;;7.90;1.00;;;;;;5073051;28;20195;-66
2020/12/14 04:24:54;;;;;;;3.93;1.50;;;7.80;1.00;;;;;;5073398;28;20195;-66
2020/12/14 04:27:20;;;;;;;6.43;1.40;;;7.90;1.00;;;;;;5073301;28;20169;-66
2020/12/14 04:29:45;;;;;;;4.00;1.77;;;7.90;1.00;;;;;;5072991;28;20203;-66
2020/12/14 04:32:11;;;;;;;4.93;2.00;;;8.00;1.00;;;;;;5072751;28;20168;-66
2020/12/14 04:34:36;;;;;;;1.90;1.33;;;8.00;1.00;;;;;;5072776;28;20222;-66
2020/12/14 04:37:02;;;;;;;5.77;1.40;;;8.00;1.00;;;;;;5073001;28;20172;-66
2020/12/14 04:39:28;;;;;;;4.27;1.50;;;8.10;1.00;;;;;;5073114;28;20245;-66
2020/12/14 04:41:57;;;;;;;3.47;1.50;;;8.10;1.00;;;;;;5073088;28;20200;-66
2020/12/14 04:44:23;;;;;;;4.88;1.70;;;7.90;1.00;;;;;;5073097;28;20173;-66
2020/12/14 04:46:50;;;;;;;4.90;1.60;;;7.90;1.00;;;;;;5073179;28;20167;-66
2020/12/14 04:49:16;;;;;;;3.88;1.35;;;8.00;1.00;;;;;;5073025;28;20423;-65
2020/12/14 04:51:41;;;;;;;2.83;1.13;;;7.90;1.00;;;;;;5073091;28;20172;-66
2020/12/14 04:54:08;;;;;;;5.50;1.90;;;8.00;1.00;;;;;;5072812;28;20703;-65
2020/12/14 04:56:41;;;;;;;6.78;1.50;;;8.00;1.00;;;;;;5072756;28;20214;-66
2020/12/14 04:59:10;;;;;;;3.20;1.80;;;8.00;1.00;;;;;;5072838;28;20232;-65
2020/12/14 05:01:36;;;;;;;6.93;1.90;;;8.00;1.00;;;;;;5072546;28;20211;-66
2020/12/14 05:04:02;;;;;;;3.33;1.57;;;8.00;1.00;;;;;;5073204;28;20168;-65
2020/12/14 05:06:42;;;;;;;3.22;1.20;;;8.00;1.00;;;;;;5073223;28;20843;-65
2020/12/14 05:09:16;;;;;;;3.45;1.92;;;8.00;1.00;;;;;;5072847;28;20149;-65
2020/12/14 05:11:41;;;;;;;4.18;1.60;;;7.90;7.00;;;;;;5072588;28;20157;-66
2020/12/14 05:14:11;;;;;;;2.60;1.30;;;8.10;1.00;;;;;;5072658;28;20176;-65
2020/12/14 05:16:37;;;;;;;8.02;1.75;;;8.10;7.40;;;;;;5072256;28;20188;-66
2020/12/14 05:19:19;;;;;;;3.67;1.50;;;8.00;9.30;;;;;;5072100;28;20656;-65
2020/12/14 05:21:50;;;;;;;1.90;1.45;;;8.00;6.90;;;;;;5074128;28;20188;-66
2020/12/14 05:24:20;;;;;;;2.70;1.55;;;8.10;6.20;;;;;;5072787;28;20183;-65
2020/12/14 05:26:49;;;;;;;3.05;1.50;;;8.10;7.90;;;;;;5072322;28;20173;-66
2020/12/14 05:29:17;;;;;;;4.65;1.40;;;8.00;10.60;;;;;;5072679;28;20188;-66
2020/12/14 05:31:59;;;;;;;3.95;1.77;;;8.00;6.70;;;;;;5073270;28;20685;-66
2020/12/14 05:34:30;;;;;;;4.32;1.60;;;8.00;7.80;;;;;;5072774;28;20157;-66
2020/12/14 05:36:57;;;;;;;5.15;1.45;;;8.10;7.80;;;;;;5072627;28;20168;-66
2020/12/14 05:39:29;;;;;;;3.22;1.70;;;8.00;17.50;;;;;;5072241;28;20271;-66
2020/12/14 05:42:07;;;;;;;10.38;1.77;;;8.00;24.60;;;;;;5072502;28;20245;-66
2020/12/14 05:44:33;;;;;;;6.20;1.40;;;8.00;18.70;;;;;;5073657;28;20164;-65
2020/12/14 05:46:58;;;;;;;4.30;1.60;;;8.00;19.40;;;;;;5074939;28;20164;-66
2020/12/14 05:49:25;;;;;;;4.03;1.57;;;8.10;22.20;;;;;;5075780;28;20185;-66
2020/12/14 05:52:01;;;;;;;3.88;1.85;;;8.00;24.70;;;;;;5075775;28;20226;-65
2020/12/14 05:54:36;;;;;;;2.65;1.50;;;8.00;39.00;;;;;;5075841;28;20164;-66
2020/12/14 05:57:03;;;;;;;9.38;1.25;;;8.10;29.80;;;;;;5075826;28;20599;-65
2020/12/14 05:59:34;;;;;;;4.22;1.60;;;8.00;37.40;;;;;;5075481;28;20214;-66
2020/12/14 06:02:05;;;;;;;3.78;1.55;;;8.00;48.30;;;;;;5075492;28;20187;-64
2020/12/14 06:04:34;;;;;;;6.60;2.65;;;8.10;54.80;;;;;;5076286;28;20168;-65
2020/12/14 06:07:06;;;;;;;5.10;1.50;;;8.10;40.10;;;;;;5076280;28;20532;-65
2020/12/14 06:09:36;;;;;;;2.13;1.00;;;8.10;53.10;;;;;;5075720;28;20198;-66
2020/12/14 06:12:04;;;;;;;3.75;1.60;;;8.10;30.00;;;;;;5075461;28;20164;-65
2020/12/14 06:14:39;;;;;;;5.13;1.50;;;8.10;48.20;;;;;;5075943;28;20180;-65
2020/12/14 06:17:10;;;;;;;2.30;1.48;;;8.00;44.50;;;;;;5075538;28;20239;-65
2020/12/14 06:19:36;;;;;;;1.65;1.20;;;8.00;62.40;;;;;;5075487;28;20561;-65
2020/12/14 06:22:06;;;;;;;4.80;1.20;;;8.10;47.70;;;;;;5076008;28;20200;-66
2020/12/14 06:24:33;;;;;;;3.47;1.40;;;8.10;47.90;;;;;;5075336;28;20405;-66
2020/12/14 06:26:59;;;;;;;3.95;1.13;;;8.10;60.20;;;;;;5075306;28;20172;-66
2020/12/14 06:29:35;;;;;;;2.50;1.43;;;8.20;63.10;;;;;;5075229;28;20336;-66
2020/12/14 06:32:02;;;;;;;4.30;1.55;;;8.10;69.90;;;;;;5075174;28;20186;-66
2020/12/14 06:34:33;;;;;;;8.70;1.60;;;8.20;62.60;;;;;;5074792;28;20664;-66
2020/12/14 06:37:00;;;;;;;6.10;1.73;;;8.10;75.80;;;;;;5075575;28;20266;-66
2020/12/14 06:39:34;;;;;;;2.55;1.45;;;8.10;88.00;;;;;;5074654;28;20556;-66
2020/12/14 06:42:11;;;;;;;3.45;1.30;;;8.20;76.30;;;;;;5074638;28;20184;-66
2020/12/14 06:45:10;;;;;;;2.95;1.77;;;8.10;76.20;;;;;;5074584;28;20233;-66
2020/12/14 06:47:43;;;;;;;5.53;1.50;;;8.20;91.10;;;;;;5074716;28;20168;-66
2020/12/14 06:50:24;;;;;;;7.18;1.40;;;8.20;75.10;;;;;;5074720;28;20234;-64
2020/12/14 06:52:49;;;;;;;3.40;1.30;;;8.20;79.10;;;;;;5074294;28;20183;-66
2020/12/14 06:55:15;;;;;;;4.03;1.30;;;8.30;65.40;;;;;;5074143;28;20172;-66
2020/12/14 06:57:40;;;;;;;3.00;2.00;;;8.10;93.80;;;;;;5074112;28;20203;-66
2020/12/14 07:00:07;;;;;;;11.73;2.40;;;8.20;93.60;;;;;;5074378;28;20188;-68
2020/12/14 07:02:40;;;;;;;4.63;1.55;;;8.20;93.40;;;;;;5073827;28;20199;-65
2020/12/14 07:05:28;;;;;;;3.65;1.40;;;8.30;92.30;;;;;;5074221;28;20210;-65
2020/12/14 07:07:53;;;;;;;5.72;1.45;;;8.30;90.80;;;;;;5073710;28;20164;-67
2020/12/14 07:10:24;;;;;;;3.53;1.33;;;8.30;76.90;;;;;;5073825;28;20534;-67
2020/12/14 07:12:50;;;;;;;2.35;1.20;;;8.40;57.80;;;;;;5074265;28;20529;-67
2020/12/14 07:15:33;;;;;;;4.50;1.43;;;8.40;55.30;;;;;;5074120;28;20183;-67
2020/12/14 07:18:05;;;;;;;2.97;1.30;;;8.40;44.80;;;;;;5074245;28;20887;-67
2020/12/14 07:20:32;;;;;;;5.93;1.63;;;8.30;33.60;;;;;;5073725;28;20216;-66
2020/12/14 07:23:20;;;;;;;4.07;1.80;;;8.50;32.10;;;;;;5072189;28;20291;-68
2020/12/14 07:25:48;;;;;;;3.65;1.70;;;8.40;33.40;;;;;;5074043;28;20639;-65
2020/12/14 07:28:14;;;;;;;4.05;2.60;;;8.40;42.10;;;;;;5074602;28;20230;-66
2020/12/14 07:30:39;;;;;;;3.25;1.45;;;8.30;44.60;;;;;;5073576;28;20184;-65
2020/12/14 07:33:05;;;;;;;3.47;1.37;;;8.30;41.40;;;;;;5074059;28;20175;-66
2020/12/14 07:35:31;;;;;;;4.90;1.50;;;8.30;55.50;;;;;;5073877;28;20175;-66
2020/12/14 07:37:56;;;;;;;4.60;1.67;;;8.30;53.50;;;;;;5073605;28;20168;-66
2020/12/14 07:40:22;;;;;;;5.43;1.30;;;8.20;91.80;;;;;;5073659;28;20552;-65
2020/12/14 07:42:48;;;;;;;3.03;1.43;;;8.20;99.90;;;;;;5073433;28;20613;-66
2020/12/14 07:45:18;;;;;;;2.13;1.20;;;8.30;99.90;;;;;;5073191;28;20171;-66
2020/12/14 07:47:46;;;;;;;4.45;1.58;;;8.30;95.90;;;;;;5073817;28;20669;-68
2020/12/14 07:50:19;;;;;;;7.60;1.67;;;8.30;94.00;;;;;;5074018;28;20199;-66
2020/12/14 07:52:55;;;;;;;5.35;1.80;;;8.40;82.20;;;;;;5073473;28;20164;-64
2020/12/14 07:55:22;;;;;;;4.93;1.90;;;8.30;97.70;;;;;;5073454;28;20148;-66
2020/12/14 07:57:49;;;;;;;5.93;1.65;;;8.40;86.30;;;;;;5073558;28;20182;-65
2020/12/14 08:00:20;;;;;;;3.03;1.58;;;8.50;87.20;;;;;;5072877;28;20199;-63
2020/12/14 08:02:45;;;;;;;1.80;1.42;;;8.50;57.90;;;;;;5073281;28;20188;-65
2020/12/14 08:05:19;;;;;;;2.20;1.30;;;8.50;67.40;;;;;;5072749;28;20199;-66
2020/12/14 08:08:06;;;;;;;5.22;1.63;;;8.40;59.70;;;;;;5072949;28;20202;-65
2020/12/14 08:10:38;;;;;;;2.33;1.77;;;8.50;97.90;;;;;;5072952;28;20271;-66
2020/12/14 08:13:10;;;;;;;3.63;1.70;;;8.40;99.90;;;;;;5073657;28;20156;-65
2020/12/14 08:15:38;;;;;;;4.50;1.88;;;8.40;99.90;;;;;;5073268;28;20578;-63
2020/12/14 08:18:08;;;;;;;5.88;1.52;;;8.40;99.90;;;;;;5072858;28;20513;-66
2020/12/14 08:20:36;;;;;;;2.47;1.50;;;8.40;99.90;;;;;;5072705;28;20211;-66
2020/12/14 08:23:03;;;;;;;4.38;1.77;;;8.40;99.90;;;;;;5073240;28;20283;-67
2020/12/14 08:25:31;;;;;;;2.15;1.30;;;8.30;99.90;;;;;;5073071;28;20243;-66
2020/12/14 08:28:04;;;;;;;2.70;1.45;;;8.40;99.90;;;;;;5072879;28;20180;-65
2020/12/14 08:30:31;;;;;;;6.55;1.50;;;8.30;99.90;;;;;;5072838;28;20184;-66
2020/12/14 08:33:13;;;;;;;1.80;1.30;;;8.40;99.90;;;;;;5072682;28;20225;-65
2020/12/14 08:35:43;;;;;;;2.05;1.50;;;8.40;1.00;;;;;;5072643;28;20291;-65
2020/12/14 08:38:12;;;;;;;5.30;1.65;;;8.40;1.00;;;;;;5072774;28;20199;-65
2020/12/14 08:40:38;;;;;;;2.83;1.55;;;8.30;1.00;;;;;;5072251;28;20180;-65
2020/12/14 08:43:11;;;;;;;7.88;2.50;;;8.30;1.00;;;;;;5072685;28;20192;-66
2020/12/14 08:45:57;;;;;;;4.30;1.55;;;8.20;1.00;;;;;;5072562;28;20191;-65
2020/12/14 08:48:23;;;;;;;8.07;2.47;;;8.30;1.00;;;;;;5072274;28;20227;-68
2020/12/14 08:50:49;;;;;;;4.78;2.50;;;8.40;1.00;;;;;;5072565;28;20216;-65
2020/12/14 08:53:23;;;;;;;2.93;1.70;;;8.40;1.00;;;;;;5072657;28;20208;-64
2020/12/14 08:55:49;;;;;;;4.68;2.42;;;8.40;1.00;;;;;;5072424;28;20159;-65
2020/12/14 08:58:14;;;;;;;3.47;1.83;;;8.40;1.00;;;;;;5072411;28;20168;-66
2020/12/14 09:00:40;;;;;;;3.70;2.10;;;8.30;1.00;;;;;;5072430;28;20195;-65
2020/12/14 09:03:05;;;;;;;6.30;2.10;;;8.40;1.00;;;;;;5072625;28;20196;-66
2020/12/14 09:05:35;;;;;;;2.50;1.60;;;8.50;99.90;;;;;;5072308;28;20182;-66
2020/12/14 09:08:30;;;;;;;5.30;1.80;;;8.40;69.80;;;;;;5072358;28;20274;-66
2020/12/14 09:10:57;;;;;;;1.73;1.40;;;8.40;99.90;;;;;;5063450;28;20289;-66
2020/12/14 09:13:22;;;;;;;3.80;1.95;;;8.40;99.90;;;;;;5072313;28;20194;-65
2020/12/14 09:15:53;;;;;;;4.23;2.43;;;8.40;99.90;;;;;;5072594;28;20255;-65
2020/12/14 09:18:19;;;;;;;3.22;2.05;;;8.60;99.90;;;;;;5072582;28;20250;-65
2020/12/14 09:20:46;;;;;;;5.03;2.10;;;8.60;48.20;;;;;;5075810;28;20199;-66
2020/12/14 09:23:20;;;;;;;3.60;1.88;;;8.60;44.20;;;;;;5076132;28;20222;-65
2020/12/14 09:25:46;;;;;;;2.67;1.50;;;8.70;42.70;;;;;;5076187;28;20183;-66
2020/12/14 09:28:11;;;;;;;3.50;1.70;;;8.60;1.00;;;;;;5076313;28;20317;-66
2020/12/14 09:30:37;;;;;;;6.57;2.07;;;8.60;1.00;;;;;;5075835;28;20192;-67
2020/12/14 09:33:03;;;;;;;5.90;2.37;;;8.60;1.00;;;;;;5075783;28;20257;-64
2020/12/14 09:35:28;;;;;;;3.93;2.00;;;8.60;1.00;;;;;;5075838;28;20230;-66
2020/12/14 09:37:54;;;;;;;3.37;1.90;;;8.60;1.00;;;;;;5075813;28;20613;-67
2020/12/14 09:40:19;;;;;;;9.10;1.97;;;8.70;28.70;;;;;;5075828;28;20188;-66
2020/12/14 09:42:45;;;;;;;3.00;1.50;;;8.60;1.00;;;;;;5075772;28;20729;-66
2020/12/14 09:45:10;;;;;;;5.93;2.23;;;8.70;1.00;;;;;;5076236;28;20196;-66
2020/12/14 09:47:36;;;;;;;6.40;2.13;;;8.80;1.00;;;;;;5075994;28;20168;-67
2020/12/14 09:50:03;;;;;;;10.10;2.57;;;8.80;1.00;;;;;;5076026;28;20241;-66
2020/12/14 09:52:28;;;;;;;5.15;1.80;;;8.90;1.00;;;;;;5076038;28;20569;-66
2020/12/14 09:54:54;;;;;;;3.07;1.77;;;8.90;1.00;;;;;;5075629;28;20222;-66
2020/12/14 09:57:19;;;;;;;6.17;2.73;;;8.90;1.00;;;;;;5075634;28;20225;-64
2020/12/14 09:59:45;;;;;;;4.37;2.37;;;8.90;1.00;;;;;;5075371;28;20188;-67
2020/12/14 10:02:10;;;;;;;7.13;2.47;;;9.00;1.00;;;;;;5075895;28;20200;-66
2020/12/14 10:04:36;;;;;;;3.47;1.77;;;9.20;1.00;;;;;;5075411;28;20203;-66
2020/12/14 10:07:01;;;;;;;9.97;5.10;;;9.20;99.90;;;;;;5075666;28;20176;-66
2020/12/14 10:09:28;;;;;;;5.57;1.90;;;9.10;99.90;;;;;;5073863;28;20188;-67
2020/12/14 10:11:55;;;;;;;5.20;1.60;;;9.20;99.90;;;;;;5075419;28;20538;-68
2020/12/14 10:14:20;;;;;;;5.27;2.13;;;9.10;99.90;;;;;;5075265;28;20983;-65
2020/12/14 10:16:49;;;;;;;3.10;1.73;;;9.30;99.90;;;;;;5075350;28;20521;-66
2020/12/14 10:19:14;;;;;;;3.25;2.10;;;9.40;99.90;;;;;;5075254;28;20208;-64
2020/12/14 10:21:41;;;;;;;7.88;2.55;;;9.40;99.90;;;;;;5075450;28;20568;-66
2020/12/14 10:24:07;;;;;;;5.23;2.20;;;9.50;99.90;;;;;;5075160;28;20190;-66
2020/12/14 10:26:34;;;;;;;3.97;1.80;;;9.50;99.90;;;;;;5075197;28;20493;-66
2020/12/14 10:28:59;;;;;;;2.97;1.87;;;9.60;99.90;;;;;;5075598;28;20545;-66
2020/12/14 10:31:25;;;;;;;3.13;1.80;;;9.70;99.90;;;;;;5074079;28;20430;-66
2020/12/14 10:33:51;;;;;;;2.20;1.60;;;9.60;99.90;;;;;;5074914;28;20172;-66
2020/12/14 10:36:18;;;;;;;5.37;1.93;;;9.70;99.90;;;;;;5074642;28;20229;-66
2020/12/14 10:38:46;;;;;;;5.77;4.60;;;9.80;99.90;;;;;;5074788;28;20813;-65
2020/12/14 10:41:11;;;;;;;4.23;1.80;;;9.90;99.90;;;;;;5074805;28;20426;-66
2020/12/14 10:43:37;;;;;;;3.83;1.97;;;10.00;99.90;;;;;;5074626;28;20835;-66
2020/12/14 10:46:02;;;;;;;6.50;1.83;;;9.90;99.90;;;;;;5075433;28;20167;-65
2020/12/14 10:48:28;;;;;;;2.80;1.53;;;10.00;99.90;;;;;;5074675;28;20183;-67
2020/12/14 10:50:54;;;;;;;6.30;2.93;;;10.20;99.90;;;;;;5073290;28;20195;-68
2020/12/14 10:53:20;;;;;;;5.10;2.20;;;10.60;99.90;;;;;;5073741;28;20176;-66
2020/12/14 10:55:45;;;;;;;5.90;2.40;;;10.60;89.70;;;;;;5074896;28;20414;-67
2020/12/14 10:58:11;;;;;;;7.33;3.43;;;10.70;99.90;;;;;;5074969;28;20172;-66
2020/12/14 11:00:36;;;;;;;4.97;2.17;;;10.90;88.70;;;;;;5074616;28;20226;-66
2020/12/14 11:03:03;;;;;;;13.50;3.20;;;10.60;79.40;;;;;;5074159;28;20302;-64
2020/12/14 11:05:28;;;;;;;4.60;2.20;;;10.80;93.10;;;;;;5074335;28;20168;-66
2020/12/14 11:07:54;;;;;;;7.50;2.67;;;10.90;46.20;;;;;;5074470;28;20476;-67
2020/12/14 11:10:20;;;;;;;4.97;2.00;;;10.90;51.80;;;;;;5073875;28;20230;-67
2020/12/14 11:12:46;;;;;;;2.10;1.80;;;11.10;44.60;;;;;;5074300;28;20452;-67
2020/12/14 11:15:12;;;;;;;5.13;2.50;;;11.70;16.70;;;;;;5074943;28;20422;-67
2020/12/14 11:17:37;;;;;;;3.30;1.90;;;11.90;5.60;;;;;;5074769;28;20183;-67
2020/12/14 11:20:05;;;;;;;2.60;1.40;;;12.30;1.00;;;;;;5075833;28;20210;-67
2020/12/14 11:22:31;;;;;;;2.07;1.80;;;12.60;1.00;;;;;;5074956;28;20584;-67
2020/12/14 11:24:57;;;;;;;2.47;1.67;;;12.90;1.00;;;;;;5074188;28;20459;-66
2020/12/14 11:27:22;;;;;;;4.87;2.17;;;13.20;1.00;;;;;;5073917;28;20160;-65
2020/12/14 11:29:48;;;;;;;2.97;1.70;;;13.10;1.00;;;;;;5074224;28;20687;-66
2020/12/14 11:32:14;;;;;;;10.30;4.40;;;13.10;1.00;;;;;;5073415;28;20262;-66
2020/12/14 11:34:39;;;;;;;6.70;2.00;;;13.30;1.00;;;;;;5073870;28;20172;-66
2020/12/14 11:37:05;;;;;;;3.10;2.20;;;13.00;1.00;;;;;;5073559;28;20532;-66
2020/12/14 11:39:30;;;;;;;3.73;1.90;;;13.20;1.00;;;;;;5073139;28;20192;-67
2020/12/14 11:41:56;;;;;;;4.37;1.73;;;13.20;1.00;;;;;;5073539;28;20188;-67
2020/12/14 11:44:22;;;;;;;6.40;2.13;;;13.60;1.00;;;;;;5073809;28;20195;-67
2020/12/14 11:46:51;;;;;;;2.97;1.83;;;13.50;1.00;;;;;;5073145;28;20271;-66
2020/12/14 11:49:18;;;;;;;2.97;1.77;;;13.30;1.00;;;;;;5073195;28;20280;-67
2020/12/14 11:51:44;;;;;;;4.37;1.77;;;13.10;1.00;;;;;;5073318;28;20413;-67
2020/12/14 11:54:09;;;;;;;3.87;1.80;;;12.70;1.00;;;;;;5073454;28;20406;-65
2020/12/14 11:56:35;;;;;;;2.73;1.77;;;12.40;1.00;;;;;;5073378;28;20309;-67
2020/12/14 11:59:00;;;;;;;6.40;2.37;;;12.60;1.00;;;;;;5073181;28;20168;-67
2020/12/14 12:01:26;;;;;;;5.23;1.73;;;12.60;1.00;;;;;;5072919;28;20172;-67
2020/12/14 12:03:51;;;;;;;3.43;1.70;;;12.20;1.00;;;;;;5073048;28;20251;-67
2020/12/14 12:06:18;;;;;;;3.30;1.57;;;12.30;1.00;;;;;;5073205;28;20168;-66
2020/12/14 12:08:44;;;;;;;4.37;1.53;;;12.30;1.00;;;;;;5073717;28;20204;-67
2020/12/14 12:11:12;;;;;;;9.63;1.83;;;12.30;1.00;;;;;;5073851;28;20776;-67
2020/12/14 12:13:38;;;;;;;6.40;2.17;;;12.30;1.00;;;;;;5073578;28;20413;-68
2020/12/14 12:16:07;;;;;;;6.00;3.00;;;12.50;1.00;;;;;;5073166;28;20937;-68
2020/12/14 12:18:33;;;;;;;10.13;2.60;;;12.50;1.00;;;;;;5073603;28;20407;-65
2020/12/14 12:20:58;;;;;;;7.87;1.80;;;12.80;1.00;;;;;;5072835;28;20509;-66
2020/12/14 12:23:24;;;;;;;3.70;1.73;;;12.60;1.00;;;;;;5073009;28;21045;-67
2020/12/14 12:25:50;;;;;;;3.70;1.73;;;12.60;1.00;;;;;;5073068;28;20263;-67
2020/12/14 12:28:15;;;;;;;4.70;2.97;;;12.80;1.00;;;;;;5073568;28;20171;-68
2020/12/14 12:30:41;;;;;;;5.90;4.63;;;12.90;1.00;;;;;;5073394;28;20218;-66
2020/12/14 12:33:06;;;;;;;5.27;2.10;;;13.10;1.00;;;;;;5072815;28;20230;-65
2020/12/14 12:35:32;;;;;;;15.47;3.30;;;13.00;1.00;;;;;;5072857;28;20206;-67
2020/12/14 12:37:58;;;;;;;7.77;2.17;;;12.90;1.00;;;;;;5072422;28;20191;-67
2020/12/14 12:40:23;;;;;;;3.77;1.93;;;12.70;1.00;;;;;;5072769;28;20422;-66
2020/12/14 12:42:49;;;;;;;7.40;2.20;;;12.80;1.00;;;;;;5072780;28;20192;-69
2020/12/14 12:45:14;;;;;;;2.47;2.10;;;12.70;1.00;;;;;;5072688;28;20502;-66
2020/12/14 12:47:40;;;;;;;3.00;2.20;;;12.70;1.00;;;;;;5072541;28;20536;-65
2020/12/14 12:50:06;;;;;;;7.17;2.63;;;12.70;1.00;;;;;;5073245;28;20187;-66
2020/12/14 12:52:31;;;;;;;6.00;2.30;;;12.90;1.00;;;;;;5073057;28;20168;-66
2020/12/14 12:54:57;;;;;;;7.37;2.10;;;13.10;1.00;;;;;;5075300;28;20183;-65
2020/12/14 12:57:22;;;;;;;8.03;1.40;;;13.00;1.00;;;;;;5077089;28;20173;-66
2020/12/14 12:59:48;;;;;;;7.53;2.50;;;13.00;1.00;;;;;;5075720;28;20192;-67
2020/12/14 13:02:13;;;;;;;4.30;2.67;;;13.10;1.00;;;;;;5076800;28;20643;-67
2020/12/14 13:04:39;;;;;;;4.70;2.47;;;13.00;1.00;;;;;;5076996;28;20199;-66